Time;durP1;ratioP1;P1;durP2;ratioP2;P2;SDS_P1;SDS_P2;PMS_P1;PMS_P2;Temp;Humidity;BMP_temperature;BMP_pressure;BME280_temperature;BME280_humidity;BME280_pressure;Samples;Min_cycle;Max_cycle;Signal;HPM_P1;HPM_P2
2022/11/12 00:00:22;;;;;;;16.47;12.30;;;9.00;1.00;;;;;;4967894;28;20964;-64
2022/11/12 00:02:48;;;;;;;22.40;12.77;;;9.00;1.00;;;;;;4968174;28;20229;-66
2022/11/12 00:05:14;;;;;;;19.50;14.07;;;9.00;1.00;;;;;;4967709;28;20178;-66
2022/11/12 00:07:39;;;;;;;24.50;15.80;;;9.10;1.00;;;;;;4968089;28;20594;-66
2022/11/12 00:10:06;;;;;;;20.10;14.30;;;9.10;1.00;;;;;;4968289;28;20180;-66
2022/11/12 00:12:34;;;;;;;14.60;11.70;;;9.10;1.00;;;;;;4967888;28;20197;-66
2022/11/12 00:15:00;;;;;;;16.97;12.03;;;9.00;1.00;;;;;;4967889;28;20417;-67
2022/11/12 00:17:26;;;;;;;16.53;13.57;;;9.00;1.00;;;;;;4967970;28;20761;-64
2022/11/12 00:19:52;;;;;;;16.13;12.60;;;9.00;1.00;;;;;;4968728;28;20604;-67
2022/11/12 00:22:19;;;;;;;16.40;12.17;;;9.00;1.00;;;;;;4969751;28;20182;-66
2022/11/12 00:24:44;;;;;;;24.00;13.40;;;8.90;1.00;;;;;;4970835;28;20749;-64
2022/11/12 00:27:10;;;;;;;17.63;11.73;;;8.90;1.00;;;;;;4971249;28;20428;-64
2022/11/12 00:29:37;;;;;;;16.67;11.03;;;8.90;1.00;;;;;;4972077;28;20579;-64
2022/11/12 00:32:06;;;;;;;14.50;11.47;;;8.90;1.00;;;;;;4971422;28;20440;-62
2022/11/12 00:34:32;;;;;;;13.90;11.40;;;9.00;1.00;;;;;;4971054;28;20413;-63
2022/11/12 00:36:59;;;;;;;13.43;11.00;;;8.90;1.00;;;;;;4970592;28;20441;-65
2022/11/12 00:39:25;;;;;;;13.00;10.20;;;9.00;1.00;;;;;;4971132;28;20492;-63
2022/11/12 00:41:50;;;;;;;33.70;12.37;;;9.00;1.00;;;;;;4971695;28;20461;-65
2022/11/12 00:44:16;;;;;;;15.47;10.33;;;8.90;1.00;;;;;;4972514;28;20799;-64
2022/11/12 00:46:42;;;;;;;14.80;11.30;;;8.90;1.00;;;;;;4972053;28;20212;-63
2022/11/12 00:49:08;;;;;;;14.97;10.77;;;8.90;1.00;;;;;;4977408;28;20173;-64
2022/11/12 00:51:34;;;;;;;13.60;9.97;;;9.00;1.00;;;;;;4973512;28;20520;-63
2022/11/12 00:54:00;;;;;;;18.40;10.67;;;8.90;1.00;;;;;;4974945;28;20413;-63
2022/11/12 00:56:26;;;;;;;29.27;11.80;;;8.80;1.00;;;;;;4974307;28;20401;-67
2022/11/12 00:58:52;;;;;;;34.93;13.07;;;8.90;1.00;;;;;;4974505;28;20807;-67
2022/11/12 01:01:18;;;;;;;39.03;12.50;;;8.90;1.00;;;;;;4973160;28;20174;-66
2022/11/12 01:03:44;;;;;;;19.57;9.67;;;8.80;1.00;;;;;;4974433;28;20550;-66
2022/11/12 01:06:21;;;;;;;19.77;11.30;;;8.80;1.00;;;;;;4973498;28;20417;-67
2022/11/12 01:08:47;;;;;;;12.30;9.43;;;8.70;1.00;;;;;;4974311;28;20173;-67
2022/11/12 01:11:20;;;;;;;13.37;10.00;;;8.60;1.00;;;;;;4973083;28;20431;-67
2022/11/12 01:13:51;;;;;;;15.20;9.33;;;8.70;1.00;;;;;;4973762;28;20425;-66
2022/11/12 01:16:20;;;;;;;20.10;10.10;;;8.70;1.00;;;;;;4974089;28;20414;-66
2022/11/12 01:18:47;;;;;;;11.23;9.90;;;8.80;1.00;;;;;;4974170;28;20485;-66
2022/11/12 01:21:13;;;;;;;12.23;10.60;;;8.80;1.00;;;;;;4973230;28;20460;-67
2022/11/12 01:23:41;;;;;;;16.20;10.20;;;8.80;1.00;;;;;;4973873;28;20405;-67
2022/11/12 01:26:10;;;;;;;11.23;8.83;;;8.80;1.00;;;;;;4972124;28;20467;-67
2022/11/12 01:28:37;;;;;;;11.10;8.73;;;8.70;1.00;;;;;;4973348;28;20436;-67
2022/11/12 01:31:15;;;;;;;14.03;9.43;;;8.60;1.00;;;;;;4972395;28;20412;-67
2022/11/12 01:33:42;;;;;;;12.37;8.43;;;8.70;1.00;;;;;;4973532;28;20897;-67
2022/11/12 01:36:09;;;;;;;14.03;8.40;;;8.70;1.00;;;;;;4972882;28;20428;-66
2022/11/12 01:38:36;;;;;;;14.60;9.47;;;8.70;1.00;;;;;;4973180;28;20429;-66
2022/11/12 01:41:02;;;;;;;11.37;9.43;;;8.70;1.00;;;;;;4972708;28;20418;-67
2022/11/12 01:43:28;;;;;;;17.90;10.17;;;8.80;1.00;;;;;;4973608;28;20432;-67
2022/11/12 01:45:55;;;;;;;17.60;9.90;;;8.70;1.00;;;;;;4973762;28;20416;-67
2022/11/12 01:48:24;;;;;;;15.90;9.10;;;8.80;1.00;;;;;;4972847;28;20492;-67
2022/11/12 01:50:50;;;;;;;13.10;9.27;;;8.80;1.00;;;;;;4974662;28;20496;-67
2022/11/12 01:53:17;;;;;;;12.70;10.40;;;8.70;1.00;;;;;;4975747;28;20925;-66
2022/11/12 01:55:42;;;;;;;24.67;11.70;;;8.70;1.00;;;;;;4975925;28;20405;-65
2022/11/12 01:58:11;;;;;;;14.10;7.80;;;8.70;1.00;;;;;;4975371;28;20984;-63
2022/11/12 02:00:38;;;;;;;14.33;10.20;;;8.70;1.00;;;;;;4971892;28;20217;-64
2022/11/12 02:03:11;;;;;;;17.47;9.70;;;8.70;1.00;;;;;;4972988;28;20524;-63
2022/11/12 02:05:37;;;;;;;33.57;11.57;;;8.70;1.00;;;;;;4972217;28;20423;-63
2022/11/12 02:08:04;;;;;;;26.33;10.93;;;8.70;1.00;;;;;;4972703;28;20451;-66
2022/11/12 02:10:30;;;;;;;24.57;10.87;;;8.70;1.00;;;;;;4971554;28;20412;-64
2022/11/12 02:15:41;;;;;;;14.40;9.03;;;8.70;1.00;;;;;;4972566;28;20228;-65
2022/11/12 02:18:07;;;;;;;13.80;9.23;;;8.70;1.00;;;;;;4972454;28;20440;-66
2022/11/12 02:20:37;;;;;;;16.40;9.97;;;8.50;1.00;;;;;;4971196;28;21350;-64
2022/11/12 02:23:05;;;;;;;12.87;9.23;;;8.50;1.00;;;;;;4972529;28;20401;-65
2022/11/12 02:25:32;;;;;;;12.73;8.73;;;8.60;1.00;;;;;;4972227;28;20405;-65
2022/11/12 02:27:59;;;;;;;24.10;11.10;;;8.50;1.00;;;;;;4972184;28;20439;-64
2022/11/12 02:30:40;;;;;;;23.50;9.90;;;8.50;1.00;;;;;;4971687;28;20487;-64
2022/11/12 02:33:06;;;;;;;15.77;9.63;;;8.60;1.00;;;;;;4972443;28;20503;-64
2022/11/12 02:35:32;;;;;;;12.30;9.50;;;8.60;1.00;;;;;;4971768;28;20524;-65
2022/11/12 02:37:58;;;;;;;14.90;9.60;;;8.60;1.00;;;;;;4972362;28;20201;-65
2022/11/12 02:40:24;;;;;;;22.43;10.60;;;8.40;1.00;;;;;;4971458;28;20839;-66
2022/11/12 02:42:50;;;;;;;11.77;8.47;;;8.20;1.00;;;;;;4979658;28;20428;-65
2022/11/12 02:45:16;;;;;;;10.07;7.43;;;8.20;1.00;;;;;;4973635;28;20413;-63
2022/11/12 02:47:42;;;;;;;24.93;9.57;;;8.20;1.00;;;;;;4970471;28;20209;-64
2022/11/12 02:50:08;;;;;;;22.80;8.70;;;8.00;1.00;;;;;;4971721;28;20731;-63
2022/11/12 02:52:34;;;;;;;21.90;9.20;;;7.80;1.00;;;;;;4971229;28;20661;-64
2022/11/12 02:55:00;;;;;;;14.00;9.40;;;7.70;1.00;;;;;;4972018;28;20922;-64
2022/11/12 02:57:26;;;;;;;11.77;7.83;;;7.70;1.00;;;;;;4971546;28;20453;-64
2022/11/12 02:59:52;;;;;;;10.90;8.63;;;8.00;1.00;;;;;;4971872;28;20670;-63
2022/11/12 03:02:17;;;;;;;24.93;8.40;;;8.10;1.00;;;;;;4971047;28;20623;-65
2022/11/12 03:04:43;;;;;;;13.70;8.83;;;8.20;1.00;;;;;;4971886;28;20603;-61
2022/11/12 03:07:09;;;;;;;12.00;7.70;;;8.30;1.00;;;;;;4971114;28;20185;-65
2022/11/12 03:09:34;;;;;;;11.77;8.93;;;8.30;1.00;;;;;;4970916;28;20275;-64
2022/11/12 03:12:00;;;;;;;10.53;7.93;;;8.40;1.00;;;;;;4970522;28;20248;-63
2022/11/12 03:14:25;;;;;;;9.63;8.03;;;8.30;1.00;;;;;;4971834;28;20173;-64
2022/11/12 03:16:51;;;;;;;10.47;7.90;;;8.40;1.00;;;;;;4971391;28;20185;-64
2022/11/12 03:19:17;;;;;;;14.90;8.57;;;8.40;1.00;;;;;;4971456;28;20221;-63
2022/11/12 03:21:42;;;;;;;16.23;8.33;;;8.30;1.00;;;;;;4970141;28;20717;-64
2022/11/12 03:24:08;;;;;;;11.10;7.50;;;8.30;1.00;;;;;;4971458;28;20170;-64
2022/11/12 03:26:34;;;;;;;16.47;8.70;;;8.30;1.00;;;;;;4971121;28;20173;-65
2022/11/12 03:28:59;;;;;;;10.30;7.87;;;8.30;1.00;;;;;;4970435;28;20165;-65
2022/11/12 03:31:25;;;;;;;17.47;8.57;;;8.40;1.00;;;;;;4970446;28;20594;-65
2022/11/12 03:33:51;;;;;;;14.43;8.30;;;8.40;1.00;;;;;;4971636;28;20174;-63
2022/11/12 03:36:16;;;;;;;9.53;7.17;;;8.40;1.00;;;;;;4970862;28;20178;-65
2022/11/12 03:38:42;;;;;;;10.33;8.40;;;8.40;1.00;;;;;;4971189;28;20197;-64
2022/11/12 03:41:08;;;;;;;10.53;8.13;;;8.40;1.00;;;;;;4970270;28;20200;-64
2022/11/12 03:43:34;;;;;;;25.07;9.90;;;8.40;1.00;;;;;;4970174;28;20165;-67
2022/11/12 03:46:00;;;;;;;15.47;7.50;;;8.30;1.00;;;;;;4971159;28;20201;-64
2022/11/12 03:48:26;;;;;;;14.00;8.40;;;8.30;1.00;;;;;;4971273;28;20196;-63
2022/11/12 03:50:55;;;;;;;13.00;8.37;;;8.20;1.00;;;;;;4968540;28;20994;-65
2022/11/12 03:53:21;;;;;;;18.10;7.80;;;8.30;1.00;;;;;;4970925;28;20280;-65
2022/11/12 03:55:47;;;;;;;12.90;7.53;;;8.20;1.00;;;;;;4970769;28;20500;-65
2022/11/12 03:58:13;;;;;;;9.50;7.00;;;8.30;1.00;;;;;;4970286;28;20674;-67
2022/11/12 04:00:39;;;;;;;27.20;9.17;;;8.30;1.00;;;;;;4962354;28;20555;-66
2022/11/12 04:03:04;;;;;;;15.77;8.23;;;8.30;1.00;;;;;;4971145;28;20405;-66
2022/11/12 04:08:35;;;;;;;17.23;7.63;;;8.30;1.00;;;;;;4968557;28;20208;-67
2022/11/12 04:11:07;;;;;;;23.33;9.10;;;8.30;1.00;;;;;;4969315;28;20441;-67
2022/11/12 04:13:33;;;;;;;10.33;7.00;;;8.30;1.00;;;;;;4968310;28;20650;-66
2022/11/12 04:21:49;;;;;;;25.93;9.10;;;8.30;1.00;;;;;;4954754;28;20883;-67
2022/11/12 04:27:05;;;;;;;9.90;6.47;;;8.20;1.00;;;;;;4969882;28;20432;-66
2022/11/12 04:32:16;;;;;;;9.30;6.67;;;8.20;1.00;;;;;;4973538;28;20467;-67
2022/11/12 04:34:42;;;;;;;12.70;8.40;;;8.20;1.00;;;;;;4968638;28;20440;-67
2022/11/12 04:37:07;;;;;;;10.03;6.80;;;8.20;1.00;;;;;;4973987;28;20798;-67
2022/11/12 04:39:33;;;;;;;14.53;7.73;;;8.30;1.00;;;;;;4977498;28;20209;-67
2022/11/12 04:45:00;;;;;;;13.77;7.40;;;8.30;1.00;;;;;;4968410;28;20415;-66
2022/11/12 04:47:34;;;;;;;26.20;8.70;;;8.30;1.00;;;;;;4972168;28;20465;-67
2022/11/12 04:50:00;;;;;;;18.10;8.57;;;8.30;1.00;;;;;;4975099;28;20409;-67
2022/11/12 04:52:27;;;;;;;13.60;8.30;;;8.30;1.00;;;;;;4976309;28;20838;-66
2022/11/12 04:54:53;;;;;;;13.47;7.40;;;8.20;1.00;;;;;;4975800;28;20427;-66
2022/11/12 04:57:19;;;;;;;17.03;7.33;;;8.20;1.00;;;;;;4973619;28;20531;-66
2022/11/12 04:59:46;;;;;;;11.33;8.83;;;8.20;1.00;;;;;;4977085;28;20464;-67
2022/11/12 05:02:11;;;;;;;8.73;6.90;;;8.10;1.00;;;;;;4975157;28;20185;-67
2022/11/12 05:04:37;;;;;;;11.33;7.20;;;8.10;1.00;;;;;;4980169;28;20413;-66
2022/11/12 05:07:03;;;;;;;9.77;7.30;;;8.10;1.00;;;;;;4977236;28;20194;-67
2022/11/12 05:09:29;;;;;;;16.30;8.07;;;8.20;1.00;;;;;;4976929;28;20173;-66
2022/11/12 05:11:55;;;;;;;10.70;7.90;;;8.20;1.00;;;;;;4976963;28;20192;-67
2022/11/12 05:14:22;;;;;;;9.63;7.70;;;8.10;1.00;;;;;;4978375;28;20495;-67
2022/11/12 05:16:48;;;;;;;13.53;7.60;;;8.00;1.00;;;;;;4976174;28;20437;-67
2022/11/12 05:19:14;;;;;;;13.63;7.30;;;8.00;1.00;;;;;;4975645;28;20484;-67
2022/11/12 05:24:24;;;;;;;11.67;7.87;;;8.20;1.00;;;;;;4974213;28;20729;-67
2022/11/12 05:26:50;;;;;;;18.13;7.63;;;8.20;1.00;;;;;;4973615;28;20499;-66
2022/11/12 05:29:16;;;;;;;35.47;9.90;;;8.30;1.00;;;;;;4973694;28;20246;-67
2022/11/12 05:31:43;;;;;;;19.20;7.93;;;8.30;1.00;;;;;;4971180;28;20433;-66
2022/11/12 05:34:09;;;;;;;33.20;8.60;;;8.20;1.00;;;;;;4973022;28;20413;-67
2022/11/12 05:36:34;;;;;;;11.50;7.63;;;8.20;1.00;;;;;;4971200;28;20451;-67
2022/11/12 05:39:00;;;;;;;11.83;7.47;;;8.20;1.00;;;;;;4973119;28;20287;-68
2022/11/12 05:41:26;;;;;;;11.87;8.20;;;8.30;1.00;;;;;;4972446;28;20170;-66
2022/11/12 05:43:52;;;;;;;11.93;7.83;;;8.20;1.00;;;;;;4971710;28;20178;-66
2022/11/12 05:46:18;;;;;;;15.03;8.43;;;8.30;1.00;;;;;;4971423;28;20420;-67
2022/11/12 05:48:43;;;;;;;15.03;8.23;;;8.30;1.00;;;;;;4973404;28;20260;-66
2022/11/12 05:51:09;;;;;;;8.27;7.13;;;8.30;1.00;;;;;;4971953;28;20571;-66
2022/11/12 05:53:35;;;;;;;14.00;7.57;;;8.30;1.00;;;;;;4968160;28;20177;-66
2022/11/12 05:56:05;;;;;;;35.80;8.77;;;8.20;1.00;;;;;;4972768;28;20841;-67
2022/11/12 05:58:32;;;;;;;22.23;7.87;;;8.30;1.00;;;;;;4973097;28;20581;-67
2022/11/12 06:00:58;;;;;;;12.87;7.60;;;8.40;1.00;;;;;;4971848;28;20499;-67
2022/11/12 06:03:24;;;;;;;60.37;13.27;;;8.20;1.00;;;;;;4972223;28;20433;-67
2022/11/12 06:05:51;;;;;;;18.90;7.63;;;8.30;1.00;;;;;;4972051;28;20433;-68
2022/11/12 06:08:17;;;;;;;12.97;6.73;;;8.40;1.00;;;;;;4972856;28;20432;-67
2022/11/12 06:10:48;;;;;;;22.20;8.33;;;8.30;1.00;;;;;;4972012;28;20520;-67
2022/11/12 06:13:13;;;;;;;44.17;10.40;;;8.30;1.00;;;;;;4972050;28;20544;-67
2022/11/12 06:15:40;;;;;;;20.23;8.33;;;8.00;1.00;;;;;;4972656;28;20433;-67
2022/11/12 06:18:06;;;;;;;10.60;7.00;;;7.90;1.00;;;;;;4972609;28;20697;-66
2022/11/12 06:20:31;;;;;;;17.77;8.13;;;8.00;1.00;;;;;;4971347;28;20488;-66
2022/11/12 06:22:57;;;;;;;14.40;7.20;;;8.10;1.00;;;;;;4971610;28;20185;-67
2022/11/12 06:25:23;;;;;;;46.47;10.57;;;8.20;1.00;;;;;;4972325;28;20178;-67
2022/11/12 06:27:48;;;;;;;24.97;8.77;;;8.20;1.00;;;;;;4972167;28;20273;-67
2022/11/12 06:30:14;;;;;;;38.37;9.70;;;8.20;1.00;;;;;;4970634;28;20335;-67
2022/11/12 06:32:40;;;;;;;28.97;8.47;;;8.20;1.00;;;;;;4970189;28;20220;-67
2022/11/12 06:35:06;;;;;;;10.03;5.97;;;8.30;1.00;;;;;;4971926;28;20555;-66
2022/11/12 06:37:32;;;;;;;13.07;7.07;;;8.30;1.00;;;;;;4971967;28;20200;-65
2022/11/12 06:39:57;;;;;;;14.23;7.50;;;8.30;1.00;;;;;;4971916;28;20822;-67
2022/11/12 06:42:23;;;;;;;13.93;9.00;;;8.30;1.00;;;;;;4970416;28;20185;-67
2022/11/12 06:44:48;;;;;;;8.77;7.20;;;8.30;1.00;;;;;;4969164;28;20166;-69
2022/11/12 06:47:14;;;;;;;10.73;7.73;;;8.30;1.00;;;;;;4972532;28;20367;-69
2022/11/12 06:49:40;;;;;;;19.30;8.17;;;8.30;1.00;;;;;;4967117;28;20185;-70
2022/11/12 06:52:05;;;;;;;29.20;8.40;;;8.30;1.00;;;;;;4978148;28;20185;-69
2022/11/12 06:54:31;;;;;;;14.80;9.60;;;8.30;1.00;;;;;;4974022;28;20177;-69
2022/11/12 06:56:57;;;;;;;16.87;6.60;;;8.30;1.00;;;;;;4959491;28;20271;-69
2022/11/12 06:59:22;;;;;;;12.83;6.07;;;8.00;1.00;;;;;;4961625;28;20217;-69
2022/11/12 07:01:48;;;;;;;84.47;12.47;;;7.80;1.00;;;;;;4970061;28;20194;-68
2022/11/12 07:04:14;;;;;;;7.33;6.23;;;7.70;1.00;;;;;;4961325;28;20544;-68
2022/11/12 07:06:39;;;;;;;9.37;5.63;;;7.60;1.00;;;;;;4973768;28;20197;-68
2022/11/12 07:09:05;;;;;;;10.70;6.33;;;7.40;1.00;;;;;;4962905;28;20545;-68
2022/11/12 07:11:31;;;;;;;10.00;5.83;;;7.40;1.00;;;;;;4977717;28;20174;-67
2022/11/12 07:13:56;;;;;;;11.00;6.63;;;7.40;1.00;;;;;;4968413;28;20543;-68
2022/11/12 07:16:22;;;;;;;20.47;7.10;;;7.50;1.00;;;;;;4967099;28;20182;-68
2022/11/12 07:18:49;;;;;;;20.70;7.40;;;7.50;1.00;;;;;;4973415;28;20592;-69
2022/11/12 07:21:19;;;;;;;22.00;6.30;;;7.40;1.00;;;;;;4971003;28;20614;-68
2022/11/12 07:23:45;;;;;;;16.43;6.20;;;7.30;1.00;;;;;;4973413;28;20424;-70
2022/11/12 07:26:29;;;;;;;15.53;7.10;;;7.30;1.00;;;;;;4976139;28;20519;-69
2022/11/12 07:28:58;;;;;;;20.70;7.80;;;7.40;1.00;;;;;;4966155;28;20436;-70
2022/11/12 07:31:24;;;;;;;14.60;7.20;;;7.40;1.00;;;;;;4978206;28;20430;-67
2022/11/12 07:33:50;;;;;;;23.47;7.43;;;7.30;1.00;;;;;;4976720;28;21166;-66
2022/11/12 07:36:18;;;;;;;12.30;7.00;;;7.50;1.00;;;;;;4986022;28;20459;-67
2022/11/12 07:38:44;;;;;;;37.43;9.20;;;7.70;1.00;;;;;;4971119;28;20221;-70
2022/11/12 07:41:15;;;;;;;12.43;7.10;;;7.80;1.00;;;;;;4969827;28;20425;-68
2022/11/12 07:43:43;;;;;;;31.53;8.93;;;7.90;1.00;;;;;;4974555;28;20500;-69
2022/11/12 07:46:16;;;;;;;29.83;11.23;;;8.00;1.00;;;;;;4973112;28;20421;-68
2022/11/12 07:48:43;;;;;;;17.50;9.57;;;8.00;1.00;;;;;;4964261;28;20443;-70
2022/11/12 07:51:35;;;;;;;9.50;7.60;;;8.00;1.00;;;;;;4961325;28;20426;-71
2022/11/12 07:54:01;;;;;;;11.70;7.83;;;8.10;1.00;;;;;;4969978;28;20443;-68
2022/11/12 07:56:27;;;;;;;24.67;10.07;;;8.10;1.00;;;;;;4973687;28;20519;-67
2022/11/12 07:58:53;;;;;;;18.17;7.67;;;8.30;1.00;;;;;;4974792;28;20220;-68
2022/11/12 08:01:27;;;;;;;8.00;6.30;;;8.20;1.00;;;;;;4964747;28;21281;-70
2022/11/12 08:03:53;;;;;;;10.80;6.50;;;7.90;1.00;;;;;;4969500;28;20756;-68
2022/11/12 08:06:19;;;;;;;12.57;7.47;;;7.80;1.00;;;;;;4983897;28;20436;-67
2022/11/12 08:08:45;;;;;;;8.13;6.17;;;7.90;1.00;;;;;;4972131;28;20788;-67
2022/11/12 08:11:11;;;;;;;13.20;7.33;;;8.10;1.00;;;;;;4964728;28;20534;-66
2022/11/12 08:13:37;;;;;;;22.43;7.70;;;8.10;1.00;;;;;;4972029;28;20434;-65
2022/11/12 08:16:03;;;;;;;10.57;7.50;;;7.90;1.00;;;;;;4977781;28;20182;-67
2022/11/12 08:18:30;;;;;;;19.57;8.47;;;8.00;1.00;;;;;;4975642;28;20294;-66
2022/11/12 08:21:04;;;;;;;10.03;6.83;;;8.10;1.00;;;;;;4976172;28;20548;-67
2022/11/12 08:23:29;;;;;;;10.10;7.40;;;8.20;1.00;;;;;;4963718;28;20520;-67
2022/11/12 08:26:00;;;;;;;11.90;7.93;;;8.20;1.00;;;;;;4967377;28;20524;-69
2022/11/12 08:28:27;;;;;;;23.50;8.27;;;8.10;1.00;;;;;;4975501;28;20737;-66
2022/11/12 08:30:53;;;;;;;34.63;10.10;;;8.20;1.00;;;;;;4972022;28;20925;-67
2022/11/12 08:33:19;;;;;;;21.93;7.70;;;8.30;1.00;;;;;;4972754;28;20469;-69
2022/11/12 08:35:44;;;;;;;13.87;6.97;;;8.30;1.00;;;;;;4987584;28;20440;-67
2022/11/12 08:38:13;;;;;;;9.33;6.43;;;8.30;1.00;;;;;;4976866;28;20256;-68
2022/11/12 08:40:39;;;;;;;15.77;6.83;;;8.40;1.00;;;;;;4973438;28;20685;-67
2022/11/12 08:43:07;;;;;;;21.87;8.63;;;8.20;1.00;;;;;;4974127;28;20448;-67
2022/11/12 08:45:35;;;;;;;50.67;11.30;;;8.20;1.00;;;;;;4973551;28;20456;-67
2022/11/12 08:48:03;;;;;;;83.70;12.80;;;8.30;1.00;;;;;;4975832;28;20654;-68
2022/11/12 08:50:29;;;;;;;27.83;7.20;;;8.20;1.00;;;;;;4973985;28;21276;-69
2022/11/12 08:53:10;;;;;;;20.97;7.70;;;8.00;1.00;;;;;;4971772;28;20433;-69
2022/11/12 08:55:36;;;;;;;12.10;6.47;;;7.80;1.00;;;;;;4972608;28;21869;-67
2022/11/12 08:58:03;;;;;;;15.70;7.30;;;7.90;1.00;;;;;;4966939;28;20504;-67
2022/11/12 09:00:32;;;;;;;20.33;8.47;;;8.00;1.00;;;;;;4987206;28;20209;-67
2022/11/12 09:03:06;;;;;;;26.77;9.17;;;8.20;1.00;;;;;;4975325;28;20806;-67
2022/11/12 09:05:34;;;;;;;35.37;9.77;;;8.40;1.00;;;;;;4970843;28;20449;-68
2022/11/12 09:08:12;;;;;;;23.53;8.17;;;8.50;1.00;;;;;;4966223;28;20444;-67
2022/11/12 09:10:38;;;;;;;15.30;6.67;;;8.40;1.00;;;;;;4976917;28;20543;-67
2022/11/12 09:13:04;;;;;;;29.73;9.67;;;8.40;1.00;;;;;;4980164;28;21064;-67
2022/11/12 09:15:30;;;;;;;9.63;7.00;;;8.50;1.00;;;;;;4984667;28;20433;-66
2022/11/12 09:18:01;;;;;;;16.33;7.20;;;8.50;1.00;;;;;;4974525;28;20610;-67
2022/11/12 09:20:28;;;;;;;12.10;7.57;;;8.50;1.00;;;;;;4973187;28;20483;-70
2022/11/12 09:23:00;;;;;;;12.47;7.30;;;8.60;1.00;;;;;;4976556;28;20493;-69
2022/11/12 09:25:26;;;;;;;10.83;7.23;;;8.60;1.00;;;;;;4982571;28;20447;-68
2022/11/12 09:27:53;;;;;;;8.43;6.83;;;8.60;1.00;;;;;;4980721;28;20453;-67
2022/11/12 09:30:19;;;;;;;11.10;6.80;;;8.70;1.00;;;;;;4964124;28;20556;-67
2022/11/12 09:32:44;;;;;;;6.00;5.10;;;8.70;1.00;;;;;;4972555;28;20444;-67
2022/11/12 09:35:10;;;;;;;6.60;4.97;;;8.30;1.00;;;;;;4972768;28;20665;-66
2022/11/12 09:37:39;;;;;;;7.80;6.77;;;8.10;1.00;;;;;;4974423;28;20214;-68
2022/11/12 09:40:06;;;;;;;7.57;6.77;;;7.80;1.00;;;;;;4963924;28;20218;-67
2022/11/12 09:42:34;;;;;;;13.60;7.37;;;7.60;1.00;;;;;;4972709;28;20779;-68
2022/11/12 09:45:03;;;;;;;63.73;12.50;;;7.90;1.00;;;;;;4978162;28;20468;-67
2022/11/12 09:47:38;;;;;;;261.10;28.83;;;8.00;1.00;;;;;;4984419;28;20968;-68
2022/11/12 09:50:23;;;;;;;81.87;14.10;;;8.00;1.00;;;;;;4980178;28;20464;-67
2022/11/12 09:52:55;;;;;;;19.03;9.37;;;8.20;1.00;;;;;;4970008;28;20436;-66
2022/11/12 09:55:35;;;;;;;37.63;10.47;;;8.00;1.00;;;;;;4978103;28;20457;-67
2022/11/12 09:58:01;;;;;;;7.80;7.00;;;8.00;1.00;;;;;;4977803;28;20537;-68
2022/11/12 10:00:27;;;;;;;17.47;7.23;;;7.80;1.00;;;;;;4981912;28;20485;-69
2022/11/12 10:03:04;;;;;;;18.13;7.87;;;7.90;1.00;;;;;;4965871;28;20437;-67
2022/11/12 10:05:56;;;;;;;11.70;6.70;;;8.00;1.00;;;;;;4967706;28;20444;-68
2022/11/12 10:08:27;;;;;;;8.57;5.90;;;8.10;1.00;;;;;;4980870;28;20575;-67
2022/11/12 10:11:12;;;;;;;11.20;6.97;;;8.20;1.00;;;;;;4970770;28;20433;-69
2022/11/12 10:13:54;;;;;;;6.43;5.53;;;8.10;1.00;;;;;;4964215;28;20441;-68
2022/11/12 10:16:43;;;;;;;16.30;7.80;;;8.10;1.00;;;;;;4967850;28;20458;-68
2022/11/12 10:19:09;;;;;;;26.13;8.60;;;8.20;1.00;;;;;;4971933;28;20538;-67
2022/11/12 10:22:05;;;;;;;62.87;11.33;;;8.30;1.00;;;;;;4975365;28;20557;-69
2022/11/12 10:24:36;;;;;;;18.50;6.80;;;8.30;1.00;;;;;;5004808;28;20227;-69
2022/11/12 10:27:14;;;;;;;70.13;13.57;;;8.30;1.00;;;;;;4977431;28;20465;-68
2022/11/12 10:29:55;;;;;;;24.57;7.53;;;8.50;1.00;;;;;;4983498;28;20432;-69
2022/11/12 10:32:21;;;;;;;10.70;6.17;;;8.30;1.00;;;;;;4972964;28;20800;-67
2022/11/12 10:34:46;;;;;;;6.77;5.90;;;8.20;1.00;;;;;;4980389;28;20452;-67
2022/11/12 10:37:22;;;;;;;15.23;6.70;;;8.20;1.00;;;;;;4991754;28;20208;-68
2022/11/12 10:39:48;;;;;;;152.13;20.00;;;8.10;1.00;;;;;;4983558;28;20206;-67
2022/11/12 10:42:17;;;;;;;56.00;10.50;;;8.10;1.00;;;;;;4987159;28;20519;-69
2022/11/12 10:44:43;;;;;;;12.13;6.53;;;8.20;1.00;;;;;;4983218;28;20244;-67
2022/11/12 10:47:24;;;;;;;11.23;6.00;;;8.20;1.00;;;;;;4987328;28;20451;-67
2022/11/12 10:50:07;;;;;;;20.33;8.00;;;8.20;1.00;;;;;;4986522;28;20929;-67
2022/11/12 10:52:34;;;;;;;31.50;9.80;;;8.30;1.00;;;;;;4984393;28;20441;-67
2022/11/12 10:55:18;;;;;;;33.20;9.87;;;8.30;1.00;;;;;;4982322;28;20449;-67
2022/11/12 10:57:44;;;;;;;10.13;6.47;;;8.40;1.00;;;;;;4974680;28;20570;-67
2022/11/12 11:00:12;;;;;;;24.00;7.30;;;8.50;1.00;;;;;;4979105;28;20956;-66
2022/11/12 11:02:52;;;;;;;37.17;8.50;;;8.20;1.00;;;;;;4987933;28;20189;-67
2022/11/12 11:05:26;;;;;;;22.00;8.97;;;8.20;1.00;;;;;;4982230;28;20439;-66
2022/11/12 11:07:52;;;;;;;11.37;7.23;;;8.10;1.00;;;;;;4981889;28;20730;-66
2022/11/12 11:10:30;;;;;;;15.90;8.73;;;8.20;1.00;;;;;;4979654;28;20898;-68
2022/11/12 11:13:24;;;;;;;35.00;12.03;;;8.40;1.00;;;;;;4981523;28;20180;-68
2022/11/12 11:16:04;;;;;;;28.10;9.73;;;8.40;1.00;;;;;;4976982;28;20435;-66
2022/11/12 11:18:33;;;;;;;127.90;19.27;;;8.50;1.00;;;;;;4998303;28;20457;-67
2022/11/12 11:21:21;;;;;;;129.67;24.17;;;8.60;1.00;;;;;;4983300;28;20550;-68
2022/11/12 11:24:11;;;;;;;29.70;9.40;;;8.80;1.00;;;;;;4985568;28;20811;-66
2022/11/12 11:26:47;;;;;;;25.40;9.50;;;8.90;1.00;;;;;;4985558;28;20520;-67
2022/11/12 11:29:12;;;;;;;10.37;7.60;;;9.00;1.00;;;;;;4981315;28;21317;-67
2022/11/12 11:32:00;;;;;;;9.83;7.83;;;8.80;1.00;;;;;;4981928;28;20436;-69
2022/11/12 11:35:03;;;;;;;8.40;6.93;;;8.80;1.00;;;;;;4979321;28;20196;-66
2022/11/12 11:37:36;;;;;;;17.77;8.47;;;8.60;1.00;;;;;;4979061;28;20473;-68
2022/11/12 11:40:18;;;;;;;15.90;8.90;;;8.40;1.00;;;;;;4980173;28;20468;-68
2022/11/12 11:43:07;;;;;;;13.60;8.40;;;8.50;1.00;;;;;;4988170;28;20436;-67
2022/11/12 11:45:53;;;;;;;15.33;7.77;;;8.50;1.00;;;;;;4978872;28;20464;-67
2022/11/12 11:48:29;;;;;;;11.73;8.20;;;8.40;1.00;;;;;;4987509;28;21046;-66
2022/11/12 11:51:04;;;;;;;10.20;7.73;;;8.70;1.00;;;;;;4977069;28;20491;-67
2022/11/12 11:53:38;;;;;;;16.10;11.70;;;8.80;1.00;;;;;;4977173;28;20921;-67
2022/11/12 11:56:30;;;;;;;16.80;10.77;;;8.70;1.00;;;;;;4983999;28;20436;-66
2022/11/12 11:59:13;;;;;;;13.37;10.00;;;8.80;1.00;;;;;;4983613;28;20515;-66
2022/11/12 12:01:48;;;;;;;48.43;13.73;;;8.80;1.00;;;;;;4976632;28;20429;-68
2022/11/12 12:04:26;;;;;;;25.50;12.80;;;8.90;1.00;;;;;;4985816;28;20427;-70
2022/11/12 12:07:16;;;;;;;22.27;15.23;;;8.90;1.00;;;;;;4971446;28;20432;-70
2022/11/12 12:09:46;;;;;;;58.23;24.07;;;8.70;1.00;;;;;;4980479;28;20433;-68
2022/11/12 12:12:23;;;;;;;72.67;35.33;;;8.60;1.00;;;;;;4982673;28;20492;-68
2022/11/12 12:15:07;;;;;;;63.90;34.90;;;8.60;1.00;;;;;;4979004;28;20893;-70
2022/11/12 12:17:41;;;;;;;56.17;34.27;;;8.50;1.00;;;;;;4981879;28;20526;-69
2022/11/12 12:20:30;;;;;;;62.80;36.27;;;8.50;1.00;;;;;;4974206;28;20514;-69
2022/11/12 12:23:04;;;;;;;61.27;36.20;;;8.60;1.00;;;;;;4973648;28;20455;-69
2022/11/12 12:25:39;;;;;;;59.03;34.57;;;8.60;1.00;;;;;;4985184;28;20407;-68
2022/11/12 12:28:28;;;;;;;51.83;27.67;;;8.80;1.00;;;;;;4982011;28;20424;-68
2022/11/12 12:31:00;;;;;;;41.27;24.67;;;9.00;1.00;;;;;;4969302;28;20806;-67
2022/11/12 12:34:01;;;;;;;38.37;23.27;;;8.90;1.00;;;;;;4976359;28;20421;-69
2022/11/12 12:36:33;;;;;;;35.90;22.40;;;8.90;1.00;;;;;;4968372;28;20436;-68
2022/11/12 12:39:18;;;;;;;30.90;19.50;;;8.60;1.00;;;;;;4979852;28;20503;-68
2022/11/12 12:42:12;;;;;;;23.27;18.57;;;8.40;1.00;;;;;;4975207;28;20440;-68
2022/11/12 12:45:00;;;;;;;25.43;15.97;;;8.30;1.00;;;;;;4980986;28;20515;-69
2022/11/12 12:47:39;;;;;;;18.93;12.83;;;8.40;1.00;;;;;;4983600;28;20577;-69
2022/11/12 12:50:11;;;;;;;15.60;11.13;;;8.70;1.00;;;;;;4984652;28;20510;-68
2022/11/12 12:52:58;;;;;;;13.77;11.23;;;8.70;1.00;;;;;;4979371;28;20796;-69
2022/11/12 12:55:45;;;;;;;12.30;10.13;;;8.70;1.00;;;;;;4976372;28;20518;-69
2022/11/12 12:58:30;;;;;;;12.70;10.17;;;8.70;1.00;;;;;;4982368;28;20469;-69
2022/11/12 13:01:24;;;;;;;12.60;10.53;;;8.80;1.00;;;;;;4969903;28;20765;-69
2022/11/12 13:04:07;;;;;;;15.23;9.67;;;8.80;1.00;;;;;;4979285;28;20597;-72
2022/11/12 13:06:45;;;;;;;13.57;10.60;;;8.50;1.00;;;;;;4987324;28;20415;-69
2022/11/12 13:09:14;;;;;;;11.37;10.17;;;8.50;1.00;;;;;;4984456;28;20424;-70
2022/11/12 13:14:49;;;;;;;13.13;10.40;;;9.00;1.00;;;;;;4982886;28;20443;-68
2022/11/12 13:17:42;;;;;;;12.23;10.63;;;9.00;1.00;;;;;;4985826;28;20467;-68
2022/11/12 13:20:08;;;;;;;12.23;10.07;;;9.00;1.00;;;;;;4988945;28;20964;-69
2022/11/12 13:22:39;;;;;;;19.63;11.17;;;9.00;1.00;;;;;;4982322;28;20500;-68
2022/11/12 13:25:11;;;;;;;29.37;10.70;;;9.10;1.00;;;;;;4981974;28;20174;-68
2022/11/12 13:27:43;;;;;;;15.90;11.30;;;9.20;1.00;;;;;;4980708;28;20460;-69
2022/11/12 13:30:17;;;;;;;32.90;11.37;;;9.10;1.00;;;;;;4980436;23;20495;-66
2022/11/12 13:32:52;;;;;;;56.47;16.70;;;9.20;1.00;;;;;;4940069;28;20464;-66
2022/11/12 13:35:21;;;;;;;27.93;12.60;;;9.20;1.00;;;;;;4953466;28;20434;-66